Time;durP1;ratioP1;P1;durP2;ratioP2;P2;SDS_P1;SDS_P2;PMS_P1;PMS_P2;Temp;Humidity;BMP_temperature;BMP_pressure;BME280_temperature;BME280_humidity;BME280_pressure;Samples;Min_cycle;Max_cycle;Signal;HPM_P1;HPM_P2
2021/07/17 00:08:17;;;;;;;7.30;2.30;;;17.80;99.90;;;;;;20443376;28;20043;-50
2021/07/17 00:18:19;;;;;;;6.68;2.03;;;17.80;99.90;;;;;;20451829;28;20486;-49
2021/07/17 00:28:21;;;;;;;5.38;2.38;;;17.80;99.90;;;;;;20457866;28;20706;-50
2021/07/17 00:38:22;;;;;;;8.25;2.40;;;17.80;99.90;;;;;;20444210;28;20546;-49
2021/07/17 00:48:23;;;;;;;5.18;2.35;;;17.60;99.90;;;;;;20450811;28;20720;-49
2021/07/17 00:58:32;;;;;;;9.55;1.88;;;17.60;99.90;;;;;;20443511;28;20055;-49
2021/07/17 01:08:33;;;;;;;8.27;2.17;;;17.60;99.90;;;;;;20431433;28;20369;-50
2021/07/17 01:18:34;;;;;;;10.15;2.22;;;17.60;99.90;;;;;;20450035;28;20447;-49
2021/07/17 01:28:38;;;;;;;5.72;2.80;;;17.50;99.90;;;;;;20451093;28;20039;-49
2021/07/17 01:38:40;;;;;;;3.22;1.33;;;17.40;99.90;;;;;;20460448;28;20407;-49
2021/07/17 01:48:48;;;;;;;7.85;2.80;;;17.40;99.90;;;;;;20462611;28;20463;-50
2021/07/17 01:58:49;;;;;;;10.07;3.30;;;17.20;99.90;;;;;;20455770;28;20050;-49
2021/07/17 02:08:51;;;;;;;11.27;1.85;;;17.20;99.90;;;;;;20456653;28;20653;-49
2021/07/17 02:18:52;;;;;;;3.28;1.48;;;17.20;99.90;;;;;;20462456;28;20514;-50
2021/07/17 02:28:53;;;;;;;4.80;2.08;;;17.10;99.90;;;;;;20452848;28;20078;-49
2021/07/17 02:38:55;;;;;;;6.65;2.40;;;16.90;99.90;;;;;;20451410;28;20546;-49
2021/07/17 02:48:56;;;;;;;2.90;1.17;;;16.70;99.90;;;;;;20457396;28;20447;-50
2021/07/17 02:58:57;;;;;;;5.28;1.40;;;16.70;99.90;;;;;;20451924;28;20588;-50
2021/07/17 03:08:58;;;;;;;4.30;1.58;;;16.50;99.90;;;;;;20448783;28;20098;-50
2021/07/17 03:19:00;;;;;;;6.55;1.70;;;16.40;99.90;;;;;;20457405;28;20489;-49
2021/07/17 03:29:01;;;;;;;22.20;2.50;;;16.30;99.90;;;;;;20447139;28;20364;-49
2021/07/17 03:39:02;;;;;;;7.40;1.67;;;16.20;99.90;;;;;;20446124;28;20715;-49
2021/07/17 03:49:03;;;;;;;5.18;1.73;;;16.10;99.90;;;;;;20455518;28;20051;-49
2021/07/17 03:59:07;;;;;;;4.55;1.95;;;16.10;99.90;;;;;;20448198;28;20439;-49
2021/07/17 04:09:08;;;;;;;4.13;1.40;;;16.00;99.90;;;;;;20431124;28;20097;-49
2021/07/17 04:19:10;;;;;;;6.28;2.05;;;16.00;99.90;;;;;;20467184;28;20447;-50
2021/07/17 04:29:13;;;;;;;7.68;1.48;;;16.00;99.90;;;;;;20441188;28;20383;-49
2021/07/17 04:39:14;;;;;;;5.13;1.80;;;16.20;99.90;;;;;;20442235;28;20460;-49
2021/07/17 04:49:16;;;;;;;6.50;1.35;;;16.20;99.90;;;;;;20447294;28;20448;-49
2021/07/17 04:59:17;;;;;;;5.65;1.40;;;16.30;99.90;;;;;;20441756;28;20062;-49
2021/07/17 05:09:18;;;;;;;8.52;2.95;;;16.80;99.90;;;;;;20442682;28;20390;-49
2021/07/17 05:19:19;;;;;;;4.95;1.30;;;16.90;99.90;;;;;;20450723;28;20451;-49
2021/07/17 05:29:20;;;;;;;7.65;1.55;;;16.90;99.90;;;;;;20440763;28;20114;-50
2021/07/17 05:39:22;;;;;;;5.60;1.67;;;17.20;99.90;;;;;;20434385;28;20187;-49
2021/07/17 05:49:23;;;;;;;8.30;2.13;;;17.50;99.90;;;;;;20445410;28;20043;-49
2021/07/17 05:59:24;;;;;;;4.70;1.92;;;17.70;99.90;;;;;;20443974;28;20388;-49
2021/07/17 06:09:25;;;;;;;12.15;1.50;;;17.90;99.90;;;;;;20437758;28;20442;-49
2021/07/17 06:19:26;;;;;;;11.52;1.35;;;18.10;99.90;;;;;;20479460;28;20435;-50
2021/07/17 06:29:27;;;;;;;6.07;1.17;;;18.70;99.90;;;;;;20466313;28;20522;-50
2021/07/17 06:39:28;;;;;;;3.05;1.35;;;19.20;99.90;;;;;;20460585;28;20141;-50
2021/07/17 06:49:30;;;;;;;7.90;2.22;;;19.60;99.90;;;;;;20467899;28;20458;-49
2021/07/17 06:59:31;;;;;;;4.63;1.13;;;19.70;99.90;;;;;;20430225;28;20403;-49
2021/07/17 07:09:32;;;;;;;2.88;1.30;;;19.70;99.90;;;;;;20445214;28;20039;-49
2021/07/17 07:19:34;;;;;;;4.30;0.73;;;19.70;99.90;;;;;;20442505;28;20150;-50
2021/07/17 07:29:35;;;;;;;4.03;0.80;;;19.80;99.90;;;;;;20443994;28;20066;-47
2021/07/17 07:39:36;;;;;;;4.20;0.68;;;20.00;99.90;;;;;;20397483;28;20063;-50
2021/07/17 07:49:38;;;;;;;5.57;1.85;;;20.00;99.90;;;;;;20428798;28;20525;-50
2021/07/17 07:59:39;;;;;;;3.22;1.75;;;20.00;99.90;;;;;;20443431;28;20419;-50
2021/07/17 08:09:41;;;;;;;2.08;0.82;;;20.20;99.90;;;;;;20448308;28;20035;-49
2021/07/17 08:19:42;;;;;;;2.92;0.88;;;20.50;99.90;;;;;;20439107;28;20054;-50
2021/07/17 08:29:43;;;;;;;7.55;1.95;;;20.80;99.90;;;;;;20443035;28;20185;-50
2021/07/17 08:39:45;;;;;;;3.67;0.93;;;21.10;99.90;;;;;;20410937;28;20403;-50
2021/07/17 08:49:47;;;;;;;1.92;0.50;;;21.40;99.90;;;;;;20439257;28;20756;-50
2021/07/17 08:59:48;;;;;;;3.90;1.10;;;21.40;99.90;;;;;;20410356;28;20439;-49
2021/07/17 09:09:51;;;;;;;1.10;0.40;;;21.60;99.90;;;;;;20399298;28;20178;-50
2021/07/17 09:19:58;;;;;;;2.05;0.57;;;21.90;99.90;;;;;;20454844;28;20039;-50
2021/07/17 09:30:00;;;;;;;1.88;0.60;;;22.10;99.90;;;;;;20458642;28;20390;-50
2021/07/17 09:40:08;;;;;;;1.77;0.60;;;22.30;99.90;;;;;;20460906;28;20043;-50
2021/07/17 09:50:17;;;;;;;1.73;0.70;;;22.50;99.90;;;;;;20467070;28;20058;-50
2021/07/17 10:00:23;;;;;;;3.88;0.82;;;22.70;99.90;;;;;;20475271;28;20380;-50
2021/07/17 10:10:28;;;;;;;1.23;0.40;;;22.90;99.90;;;;;;20477639;28;20138;-50
2021/07/17 10:20:29;;;;;;;1.48;0.20;;;23.00;99.90;;;;;;20471652;28;20480;-50
2021/07/17 10:30:31;;;;;;;0.85;0.20;;;23.00;99.90;;;;;;20472783;28;20609;-50
2021/07/17 10:40:33;;;;;;;1.13;0.45;;;23.60;99.90;;;;;;20474875;28;20391;-50
2021/07/17 10:50:37;;;;;;;2.35;0.60;;;23.50;99.90;;;;;;20467368;28;20452;-50
2021/07/17 11:00:42;;;;;;;4.93;0.50;;;23.70;99.90;;;;;;20457922;28;20058;-50
2021/07/17 11:10:43;;;;;;;0.68;0.22;;;23.70;99.90;;;;;;20456504;28;20431;-50
2021/07/17 11:20:44;;;;;;;1.90;1.02;;;23.80;99.90;;;;;;20420389;28;20668;-50
2021/07/17 11:30:46;;;;;;;0.82;0.30;;;24.20;99.90;;;;;;20452871;28;20567;-50
2021/07/17 11:40:47;;;;;;;0.88;0.30;;;24.30;99.90;;;;;;20457749;28;20527;-49
2021/07/17 11:50:48;;;;;;;1.30;0.50;;;24.20;99.90;;;;;;20441138;28;20482;-49
2021/07/17 12:01:00;;;;;;;0.52;0.15;;;24.40;99.90;;;;;;20441258;28;20520;-49
2021/07/17 12:11:01;;;;;;;1.73;0.30;;;24.30;99.90;;;;;;20440604;28;20428;-49
2021/07/17 12:21:03;;;;;;;1.85;0.45;;;24.30;99.90;;;;;;20442379;28;20050;-49
2021/07/17 12:31:10;;;;;;;1.50;0.40;;;24.60;99.90;;;;;;20444947;28;20672;-49
2021/07/17 12:41:18;;;;;;;2.17;0.57;;;24.80;99.90;;;;;;20442315;28;20541;-49
2021/07/17 12:51:43;;;;;;;1.13;0.30;;;24.90;99.90;;;;;;20441843;28;20527;-49
2021/07/17 13:01:50;;;;;;;3.47;0.63;;;24.80;99.90;;;;;;20447447;28;20549;-50
2021/07/17 13:11:52;;;;;;;0.60;0.20;;;24.60;99.90;;;;;;20439002;28;20448;-49
2021/07/17 13:22:05;;;;;;;0.95;0.30;;;24.90;99.90;;;;;;20444665;28;20043;-49
2021/07/17 13:32:07;;;;;;;1.05;0.20;;;25.20;99.90;;;;;;20455239;28;20494;-49
2021/07/17 13:42:11;;;;;;;0.80;0.20;;;25.30;99.90;;;;;;20477655;28;20403;-49
2021/07/17 13:52:37;;;;;;;1.73;0.30;;;25.50;99.90;;;;;;20466500;28;20503;-49
2021/07/17 14:02:38;;;;;;;1.75;0.70;;;25.40;99.90;;;;;;20470209;28;20391;-49
2021/07/17 14:12:39;;;;;;;0.57;0.17;;;25.10;99.90;;;;;;20471397;28;20421;-49
2021/07/17 14:22:40;;;;;;;0.95;0.38;;;25.00;99.90;;;;;;20468373;28;20527;-49
2021/07/17 14:32:41;;;;;;;1.63;0.85;;;24.70;99.90;;;;;;20465550;28;20047;-49
2021/07/17 14:42:43;;;;;;;0.82;0.10;;;24.70;99.90;;;;;;20469600;28;20507;-49
2021/07/17 14:52:45;;;;;;;1.77;1.05;;;24.60;99.90;;;;;;20467398;28;20463;-49
2021/07/17 15:02:46;;;;;;;0.65;0.28;;;24.40;99.90;;;;;;20467617;28;20558;-49
2021/07/17 15:12:47;;;;;;;0.60;0.20;;;24.20;99.90;;;;;;20468624;28;20459;-49
2021/07/17 15:22:49;;;;;;;1.67;0.90;;;24.10;99.90;;;;;;20464833;28;20399;-49
2021/07/17 15:32:50;;;;;;;15.73;5.82;;;24.20;99.90;;;;;;20465044;28;20515;-49
2021/07/17 15:42:54;;;;;;;0.82;0.30;;;24.30;99.90;;;;;;20465284;28;20495;-49
2021/07/17 15:52:56;;;;;;;4.22;0.52;;;24.20;99.90;;;;;;20462357;28;20803;-49
2021/07/17 16:02:57;;;;;;;1.90;0.50;;;24.30;99.90;;;;;;20464054;28;20447;-49
2021/07/17 16:12:58;;;;;;;1.58;0.30;;;24.10;99.90;;;;;;20465060;28;20804;-49
2021/07/17 16:22:59;;;;;;;1.77;0.28;;;24.20;99.90;;;;;;20462296;28;20087;-49
2021/07/17 16:33:01;;;;;;;1.52;0.47;;;24.30;99.90;;;;;;20465234;28;20431;-49
2021/07/17 16:43:02;;;;;;;1.17;0.73;;;24.10;99.90;;;;;;20461210;28;20577;-49
2021/07/17 16:53:04;;;;;;;1.27;0.47;;;23.90;99.90;;;;;;20457004;28;20039;-49
2021/07/17 17:03:06;;;;;;;1.52;0.60;;;23.80;99.90;;;;;;20459968;28;20435;-49
2021/07/17 17:13:07;;;;;;;1.02;0.22;;;23.60;99.90;;;;;;20457574;28;20484;-49
2021/07/17 17:23:08;;;;;;;0.80;0.30;;;23.30;99.90;;;;;;20459995;28;20515;-49
2021/07/17 17:33:09;;;;;;;0.55;0.20;;;23.30;99.90;;;;;;20460761;28;20526;-49
2021/07/17 17:43:10;;;;;;;1.02;0.32;;;23.20;99.90;;;;;;20458688;28;20430;-49
2021/07/17 17:53:12;;;;;;;0.95;0.35;;;23.00;99.90;;;;;;20458860;28;20491;-49
2021/07/17 18:03:13;;;;;;;0.95;0.28;;;22.90;99.90;;;;;;20453166;28;20054;-49
2021/07/17 18:13:16;;;;;;;1.02;0.30;;;22.80;99.90;;;;;;20471684;28;20043;-49
2021/07/17 18:23:17;;;;;;;0.85;0.22;;;22.70;99.90;;;;;;20471849;28;20496;-49
2021/07/17 18:33:22;;;;;;;4.57;1.77;;;22.60;99.90;;;;;;20470869;28;20680;-49
2021/07/17 18:43:24;;;;;;;2.85;0.85;;;22.50;99.90;;;;;;20468140;28;20050;-49
2021/07/17 18:53:25;;;;;;;2.65;1.40;;;22.40;99.90;;;;;;20463875;28;20132;-49
2021/07/17 19:03:29;;;;;;;0.55;0.30;;;22.20;99.90;;;;;;20471764;28;20202;-49
2021/07/17 19:13:31;;;;;;;1.23;0.30;;;22.00;99.90;;;;;;20469743;28;20051;-49
2021/07/17 19:23:32;;;;;;;2.35;0.50;;;21.80;99.90;;;;;;20466868;28;20035;-49
2021/07/17 19:33:34;;;;;;;4.05;0.93;;;21.60;99.90;;;;;;20465740;28;20134;-49
2021/07/17 19:43:35;;;;;;;0.80;0.38;;;21.30;99.90;;;;;;20469406;28;20039;-49
2021/07/17 19:53:36;;;;;;;1.50;0.30;;;21.20;99.90;;;;;;20466920;28;20047;-49
2021/07/17 20:03:38;;;;;;;2.33;0.30;;;21.20;99.90;;;;;;20467055;28;20047;-49
2021/07/17 20:13:39;;;;;;;3.58;0.38;;;21.00;99.90;;;;;;20464479;28;20058;-49
2021/07/17 20:23:40;;;;;;;0.55;0.30;;;20.70;99.90;;;;;;20463769;28;20483;-49
2021/07/17 20:33:41;;;;;;;1.80;0.70;;;20.50;99.90;;;;;;20462060;28;20134;-49
2021/07/17 20:43:43;;;;;;;1.35;0.57;;;20.10;99.90;;;;;;20464052;28;20051;-49
2021/07/17 20:53:44;;;;;;;1.67;0.77;;;20.00;99.90;;;;;;20458880;28;20074;-49
2021/07/17 21:03:45;;;;;;;5.13;0.60;;;19.70;99.90;;;;;;20462958;28;20047;-49
2021/07/17 21:13:46;;;;;;;2.55;0.73;;;19.60;99.90;;;;;;20459714;28;20046;-49
2021/07/17 21:23:48;;;;;;;1.70;0.60;;;19.40;99.90;;;;;;20447282;28;20048;-49
2021/07/17 21:33:49;;;;;;;2.80;1.45;;;19.20;99.90;;;;;;20438348;28;20126;-49
2021/07/17 21:43:51;;;;;;;2.40;0.82;;;19.20;99.90;;;;;;20454270;28;20102;-49
2021/07/17 21:53:52;;;;;;;3.05;0.93;;;19.20;99.90;;;;;;20456576;28;20047;-49
2021/07/17 22:03:53;;;;;;;2.33;1.05;;;19.00;99.90;;;;;;20467436;28;20047;-49
2021/07/17 22:13:54;;;;;;;2.88;1.17;;;18.80;99.90;;;;;;20463662;28;20203;-49
2021/07/17 22:23:56;;;;;;;1.83;0.77;;;18.60;99.90;;;;;;20465957;28;20110;-49
2021/07/17 22:33:57;;;;;;;2.97;1.08;;;18.60;99.90;;;;;;20471082;28;20479;-49
2021/07/17 22:43:58;;;;;;;2.10;0.80;;;18.40;99.90;;;;;;20455268;28;20043;-49
2021/07/17 22:53:59;;;;;;;2.45;1.10;;;18.40;99.90;;;;;;20461318;28;20062;-49
2021/07/17 23:04:01;;;;;;;2.42;0.98;;;18.20;99.90;;;;;;20456373;28;20051;-49
2021/07/17 23:14:03;;;;;;;3.95;1.05;;;18.00;99.90;;;;;;20457914;28;20404;-49
2021/07/17 23:24:04;;;;;;;3.13;1.10;;;18.00;99.90;;;;;;20461828;28;20047;-49
2021/07/17 23:34:06;;;;;;;3.25;1.52;;;17.90;99.90;;;;;;20455923;28;20403;-49
2021/07/17 23:44:07;;;;;;;2.05;0.95;;;17.90;99.90;;;;;;20452517;28;20043;-49
2021/07/17 23:54:08;;;;;;;2.20;1.15;;;17.70;99.90;;;;;;20456666;28;20043;-49
